sensor_id;sensor_type;location;lat;lon;timestamp;temperature;humidity
46758;DHT22;32509;47.750;-3.396;2023-04-01T00:00:29;12.50;99.90
46758;DHT22;32509;47.750;-3.396;2023-04-01T00:02:55;12.50;99.90
46758;DHT22;32509;47.750;-3.396;2023-04-01T00:05:21;12.50;99.90
46758;DHT22;32509;47.750;-3.396;2023-04-01T00:07:47;12.50;99.90
46758;DHT22;32509;47.750;-3.396;2023-04-01T00:10:13;12.40;99.90
46758;DHT22;32509;47.750;-3.396;2023-04-01T00:12:40;12.50;99.90
46758;DHT22;32509;47.750;-3.396;2023-04-01T00:15:07;12.50;99.90
46758;DHT22;32509;47.750;-3.396;2023-04-01T00:17:33;12.50;99.90
46758;DHT22;32509;47.750;-3.396;2023-04-01T00:19:59;12.50;99.90
46758;DHT22;32509;47.750;-3.396;2023-04-01T00:22:26;12.50;99.90
46758;DHT22;32509;47.750;-3.396;2023-04-01T00:24:52;12.50;99.90
46758;DHT22;32509;47.750;-3.396;2023-04-01T00:27:19;12.50;99.90
46758;DHT22;32509;47.750;-3.396;2023-04-01T00:29:46;12.50;99.90
46758;DHT22;32509;47.750;-3.396;2023-04-01T00:32:14;12.50;99.90
46758;DHT22;32509;47.750;-3.396;2023-04-01T00:34:40;12.50;99.90
46758;DHT22;32509;47.750;-3.396;2023-04-01T00:37:07;12.50;99.90
46758;DHT22;32509;47.750;-3.396;2023-04-01T00:39:34;12.50;99.90
46758;DHT22;32509;47.750;-3.396;2023-04-01T00:42:02;12.50;99.90
46758;DHT22;32509;47.750;-3.396;2023-04-01T00:44:31;12.50;99.90
46758;DHT22;32509;47.750;-3.396;2023-04-01T00:46:58;12.40;99.90
46758;DHT22;32509;47.750;-3.396;2023-04-01T00:49:31;12.40;99.90
46758;DHT22;32509;47.750;-3.396;2023-04-01T00:52:00;12.50;99.90
46758;DHT22;32509;47.750;-3.396;2023-04-01T00:54:29;12.40;99.90
46758;DHT22;32509;47.750;-3.396;2023-04-01T00:57:36;12.40;99.90
46758;DHT22;32509;47.750;-3.396;2023-04-01T01:00:06;12.40;99.90
46758;DHT22;32509;47.750;-3.396;2023-04-01T01:02:33;12.30;99.90
46758;DHT22;32509;47.750;-3.396;2023-04-01T01:05:00;12.30;99.90
46758;DHT22;32509;47.750;-3.396;2023-04-01T01:07:46;12.30;99.90
46758;DHT22;32509;47.750;-3.396;2023-04-01T01:10:33;12.30;99.90
46758;DHT22;32509;47.750;-3.396;2023-04-01T01:15:32;12.30;99.90
46758;DHT22;32509;47.750;-3.396;2023-04-01T01:18:16;12.30;99.90
46758;DHT22;32509;47.750;-3.396;2023-04-01T01:24:07;12.30;99.90
46758;DHT22;32509;47.750;-3.396;2023-04-01T01:26:49;12.30;99.90
46758;DHT22;32509;47.750;-3.396;2023-04-01T01:37:46;12.40;99.90
46758;DHT22;32509;47.750;-3.396;2023-04-01T01:40:13;12.40;99.90
46758;DHT22;32509;47.750;-3.396;2023-04-01T01:42:43;12.40;99.90
46758;DHT22;32509;47.750;-3.396;2023-04-01T01:45:11;12.40;99.90
46758;DHT22;32509;47.750;-3.396;2023-04-01T01:47:39;12.40;99.90
46758;DHT22;32509;47.750;-3.396;2023-04-01T01:50:07;12.40;99.90
46758;DHT22;32509;47.750;-3.396;2023-04-01T01:52:33;12.40;99.90
46758;DHT22;32509;47.750;-3.396;2023-04-01T01:54:59;12.40;99.90
46758;DHT22;32509;47.750;-3.396;2023-04-01T01:57:36;12.40;99.90
46758;DHT22;32509;47.750;-3.396;2023-04-01T02:00:07;12.40;99.90
46758;DHT22;32509;47.750;-3.396;2023-04-01T02:02:40;12.40;99.90
46758;DHT22;32509;47.750;-3.396;2023-04-01T02:05:10;12.50;99.90
46758;DHT22;32509;47.750;-3.396;2023-04-01T02:07:37;12.50;99.90
46758;DHT22;32509;47.750;-3.396;2023-04-01T02:10:06;12.50;99.90
46758;DHT22;32509;47.750;-3.396;2023-04-01T02:12:33;12.40;99.90
46758;DHT22;32509;47.750;-3.396;2023-04-01T02:15:11;12.40;99.90
46758;DHT22;32509;47.750;-3.396;2023-04-01T02:17:42;12.30;99.90
46758;DHT22;32509;47.750;-3.396;2023-04-01T02:20:13;12.40;99.90
46758;DHT22;32509;47.750;-3.396;2023-04-01T02:22:44;12.40;99.90
46758;DHT22;32509;47.750;-3.396;2023-04-01T02:25:18;12.30;99.90
46758;DHT22;32509;47.750;-3.396;2023-04-01T02:27:46;12.30;99.90
46758;DHT22;32509;47.750;-3.396;2023-04-01T02:30:14;12.30;99.90
46758;DHT22;32509;47.750;-3.396;2023-04-01T02:32:40;12.30;99.90
46758;DHT22;32509;47.750;-3.396;2023-04-01T02:35:11;12.20;99.90
46758;DHT22;32509;47.750;-3.396;2023-04-01T02:37:39;12.30;99.90
46758;DHT22;32509;47.750;-3.396;2023-04-01T02:40:10;12.20;99.90
46758;DHT22;32509;47.750;-3.396;2023-04-01T02:42:36;12.30;99.90
46758;DHT22;32509;47.750;-3.396;2023-04-01T02:45:03;12.30;99.90
46758;DHT22;32509;47.750;-3.396;2023-04-01T02:47:28;12.30;99.90
46758;DHT22;32509;47.750;-3.396;2023-04-01T02:49:55;12.30;99.90
46758;DHT22;32509;47.750;-3.396;2023-04-01T02:52:28;12.30;99.90
46758;DHT22;32509;47.750;-3.396;2023-04-01T02:54:54;12.30;99.90
46758;DHT22;32509;47.750;-3.396;2023-04-01T02:57:20;12.30;99.90
46758;DHT22;32509;47.750;-3.396;2023-04-01T02:59:47;12.30;99.90
46758;DHT22;32509;47.750;-3.396;2023-04-01T03:02:13;12.30;99.90
46758;DHT22;32509;47.750;-3.396;2023-04-01T03:04:39;12.30;99.90
46758;DHT22;32509;47.750;-3.396;2023-04-01T03:07:05;12.30;99.90
46758;DHT22;32509;47.750;-3.396;2023-04-01T03:09:31;12.30;99.90
46758;DHT22;32509;47.750;-3.396;2023-04-01T03:11:56;12.20;99.90
46758;DHT22;32509;47.750;-3.396;2023-04-01T03:14:22;12.20;99.90
46758;DHT22;32509;47.750;-3.396;2023-04-01T03:16:48;12.20;99.90
46758;DHT22;32509;47.750;-3.396;2023-04-01T03:19:14;12.30;99.90
46758;DHT22;32509;47.750;-3.396;2023-04-01T03:21:40;12.20;99.90
46758;DHT22;32509;47.750;-3.396;2023-04-01T03:24:06;12.20;99.90
46758;DHT22;32509;47.750;-3.396;2023-04-01T03:26:32;12.30;99.90
46758;DHT22;32509;47.750;-3.396;2023-04-01T03:28:57;12.30;99.90
46758;DHT22;32509;47.750;-3.396;2023-04-01T03:31:23;12.30;99.90
46758;DHT22;32509;47.750;-3.396;2023-04-01T03:33:50;12.30;99.90
46758;DHT22;32509;47.750;-3.396;2023-04-01T03:36:16;12.30;99.90
46758;DHT22;32509;47.750;-3.396;2023-04-01T03:38:42;12.30;99.90
46758;DHT22;32509;47.750;-3.396;2023-04-01T03:41:15;12.30;99.90
46758;DHT22;32509;47.750;-3.396;2023-04-01T03:43:42;12.30;99.90
46758;DHT22;32509;47.750;-3.396;2023-04-01T03:46:07;12.30;99.90
46758;DHT22;32509;47.750;-3.396;2023-04-01T03:48:33;12.30;99.90
46758;DHT22;32509;47.750;-3.396;2023-04-01T03:50:59;12.30;99.90
46758;DHT22;32509;47.750;-3.396;2023-04-01T03:53:25;12.30;99.90
46758;DHT22;32509;47.750;-3.396;2023-04-01T03:55:52;12.30;99.90
46758;DHT22;32509;47.750;-3.396;2023-04-01T03:58:18;12.30;99.90
46758;DHT22;32509;47.750;-3.396;2023-04-01T04:00:44;12.20;99.90
46758;DHT22;32509;47.750;-3.396;2023-04-01T04:03:10;12.30;99.90
46758;DHT22;32509;47.750;-3.396;2023-04-01T04:05:36;12.30;99.90
46758;DHT22;32509;47.750;-3.396;2023-04-01T04:08:02;12.30;99.90
46758;DHT22;32509;47.750;-3.396;2023-04-01T04:10:28;12.20;99.90
46758;DHT22;32509;47.750;-3.396;2023-04-01T04:12:54;12.20;99.90
46758;DHT22;32509;47.750;-3.396;2023-04-01T04:15:20;12.20;99.90
46758;DHT22;32509;47.750;-3.396;2023-04-01T04:17:47;12.30;99.90
46758;DHT22;32509;47.750;-3.396;2023-04-01T04:20:13;12.30;99.90
46758;DHT22;32509;47.750;-3.396;2023-04-01T04:22:39;12.30;99.90
46758;DHT22;32509;47.750;-3.396;2023-04-01T04:25:05;12.20;99.90
46758;DHT22;32509;47.750;-3.396;2023-04-01T04:27:31;12.30;99.90
46758;DHT22;32509;47.750;-3.396;2023-04-01T04:29:57;12.30;99.90
46758;DHT22;32509;47.750;-3.396;2023-04-01T04:32:23;12.30;99.90
46758;DHT22;32509;47.750;-3.396;2023-04-01T04:34:48;12.20;99.90
46758;DHT22;32509;47.750;-3.396;2023-04-01T04:37:14;12.30;99.90
46758;DHT22;32509;47.750;-3.396;2023-04-01T04:39:40;12.30;99.90
46758;DHT22;32509;47.750;-3.396;2023-04-01T04:42:05;12.30;99.90
46758;DHT22;32509;47.750;-3.396;2023-04-01T04:44:31;12.30;99.90
46758;DHT22;32509;47.750;-3.396;2023-04-01T04:46:57;12.30;99.90
46758;DHT22;32509;47.750;-3.396;2023-04-01T04:49:23;12.30;99.90
46758;DHT22;32509;47.750;-3.396;2023-04-01T04:51:48;12.30;99.90
46758;DHT22;32509;47.750;-3.396;2023-04-01T04:54:15;12.30;99.90
46758;DHT22;32509;47.750;-3.396;2023-04-01T04:56:40;12.30;99.90
46758;DHT22;32509;47.750;-3.396;2023-04-01T04:59:06;12.30;99.90
46758;DHT22;32509;47.750;-3.396;2023-04-01T05:01:32;12.30;99.90
46758;DHT22;32509;47.750;-3.396;2023-04-01T05:03:59;12.30;99.90
46758;DHT22;32509;47.750;-3.396;2023-04-01T05:06:25;12.30;99.90
46758;DHT22;32509;47.750;-3.396;2023-04-01T05:08:51;12.20;99.90
46758;DHT22;32509;47.750;-3.396;2023-04-01T05:11:18;12.20;99.90
46758;DHT22;32509;47.750;-3.396;2023-04-01T05:13:45;12.20;99.90
46758;DHT22;32509;47.750;-3.396;2023-04-01T05:16:13;12.20;99.90
46758;DHT22;32509;47.750;-3.396;2023-04-01T05:18:39;12.20;99.90
46758;DHT22;32509;47.750;-3.396;2023-04-01T05:21:07;12.20;99.90
46758;DHT22;32509;47.750;-3.396;2023-04-01T05:23:33;12.20;99.90
46758;DHT22;32509;47.750;-3.396;2023-04-01T05:26:03;12.20;99.90
46758;DHT22;32509;47.750;-3.396;2023-04-01T05:28:30;12.20;99.90
46758;DHT22;32509;47.750;-3.396;2023-04-01T05:31:01;12.20;99.90
46758;DHT22;32509;47.750;-3.396;2023-04-01T05:33:28;12.10;99.90
46758;DHT22;32509;47.750;-3.396;2023-04-01T05:35:54;12.20;99.90
46758;DHT22;32509;47.750;-3.396;2023-04-01T05:38:20;12.20;99.90
46758;DHT22;32509;47.750;-3.396;2023-04-01T05:40:46;12.20;99.90
46758;DHT22;32509;47.750;-3.396;2023-04-01T05:43:12;12.20;99.90
46758;DHT22;32509;47.750;-3.396;2023-04-01T05:45:38;12.10;99.90
46758;DHT22;32509;47.750;-3.396;2023-04-01T05:48:04;12.10;99.90
46758;DHT22;32509;47.750;-3.396;2023-04-01T05:50:31;12.10;99.90
46758;DHT22;32509;47.750;-3.396;2023-04-01T05:52:57;12.10;99.90
46758;DHT22;32509;47.750;-3.396;2023-04-01T05:55:23;12.10;99.90
46758;DHT22;32509;47.750;-3.396;2023-04-01T05:57:49;12.10;99.90
46758;DHT22;32509;47.750;-3.396;2023-04-01T06:00:16;12.10;99.90
46758;DHT22;32509;47.750;-3.396;2023-04-01T06:02:42;12.10;99.90
46758;DHT22;32509;47.750;-3.396;2023-04-01T06:05:19;12.10;99.90
46758;DHT22;32509;47.750;-3.396;2023-04-01T06:07:45;12.10;99.90
46758;DHT22;32509;47.750;-3.396;2023-04-01T06:10:19;12.10;99.90
46758;DHT22;32509;47.750;-3.396;2023-04-01T06:12:50;12.10;99.90
46758;DHT22;32509;47.750;-3.396;2023-04-01T06:15:42;12.10;99.90
46758;DHT22;32509;47.750;-3.396;2023-04-01T06:27:08;12.10;99.90
46758;DHT22;32509;47.750;-3.396;2023-04-01T06:29:50;12.10;99.90
46758;DHT22;32509;47.750;-3.396;2023-04-01T06:32:49;12.10;99.90
46758;DHT22;32509;47.750;-3.396;2023-04-01T06:35:34;12.10;99.90
46758;DHT22;32509;47.750;-3.396;2023-04-01T06:38:19;12.10;99.90
46758;DHT22;32509;47.750;-3.396;2023-04-01T06:46:48;12.10;99.90
46758;DHT22;32509;47.750;-3.396;2023-04-01T06:49:52;12.10;99.90
46758;DHT22;32509;47.750;-3.396;2023-04-01T06:55:29;12.10;99.90
46758;DHT22;32509;47.750;-3.396;2023-04-01T06:58:00;12.10;99.90
46758;DHT22;32509;47.750;-3.396;2023-04-01T07:00:30;12.10;99.90
46758;DHT22;32509;47.750;-3.396;2023-04-01T07:03:06;12.10;99.90
46758;DHT22;32509;47.750;-3.396;2023-04-01T07:05:37;12.10;99.90
46758;DHT22;32509;47.750;-3.396;2023-04-01T07:08:08;12.20;99.90
46758;DHT22;32509;47.750;-3.396;2023-04-01T07:10:48;12.20;99.90
46758;DHT22;32509;47.750;-3.396;2023-04-01T07:13:22;12.20;99.90
46758;DHT22;32509;47.750;-3.396;2023-04-01T07:15:59;12.20;99.90
46758;DHT22;32509;47.750;-3.396;2023-04-01T07:18:56;12.30;99.90
46758;DHT22;32509;47.750;-3.396;2023-04-01T07:21:48;12.20;99.90
46758;DHT22;32509;47.750;-3.396;2023-04-01T07:24:33;12.30;99.90
46758;DHT22;32509;47.750;-3.396;2023-04-01T07:27:00;12.30;99.90
46758;DHT22;32509;47.750;-3.396;2023-04-01T07:29:26;12.30;99.90
46758;DHT22;32509;47.750;-3.396;2023-04-01T07:32:16;12.30;99.90
46758;DHT22;32509;47.750;-3.396;2023-04-01T07:41:30;12.40;99.90
46758;DHT22;32509;47.750;-3.396;2023-04-01T07:50:27;12.30;99.90
46758;DHT22;32509;47.750;-3.396;2023-04-01T07:55:43;12.30;99.90
46758;DHT22;32509;47.750;-3.396;2023-04-01T08:00:59;12.30;99.90
46758;DHT22;32509;47.750;-3.396;2023-04-01T08:06:33;12.30;99.90
46758;DHT22;32509;47.750;-3.396;2023-04-01T08:15:31;12.30;99.90
46758;DHT22;32509;47.750;-3.396;2023-04-01T08:20:52;12.30;99.90
46758;DHT22;32509;47.750;-3.396;2023-04-01T08:23:26;12.30;99.90
46758;DHT22;32509;47.750;-3.396;2023-04-01T08:28:44;12.40;99.90
46758;DHT22;32509;47.750;-3.396;2023-04-01T08:31:24;12.40;99.90
46758;DHT22;32509;47.750;-3.396;2023-04-01T08:33:54;12.50;99.90
46758;DHT22;32509;47.750;-3.396;2023-04-01T08:36:29;12.40;99.90
46758;DHT22;32509;47.750;-3.396;2023-04-01T08:39:07;12.40;99.90
46758;DHT22;32509;47.750;-3.396;2023-04-01T08:45:20;12.50;99.90
46758;DHT22;32509;47.750;-3.396;2023-04-01T08:50:42;12.50;99.90
46758;DHT22;32509;47.750;-3.396;2023-04-01T08:58:47;12.40;99.90
46758;DHT22;32509;47.750;-3.396;2023-04-01T09:04:14;12.40;99.90
46758;DHT22;32509;47.750;-3.396;2023-04-01T09:07:04;12.40;99.90
46758;DHT22;32509;47.750;-3.396;2023-04-01T09:09:50;12.30;99.90
46758;DHT22;32509;47.750;-3.396;2023-04-01T09:12:30;12.30;99.90
46758;DHT22;32509;47.750;-3.396;2023-04-01T09:18:12;12.30;99.90
46758;DHT22;32509;47.750;-3.396;2023-04-01T09:34:12;12.30;99.90
46758;DHT22;32509;47.750;-3.396;2023-04-01T09:37:10;12.30;99.90
46758;DHT22;32509;47.750;-3.396;2023-04-01T09:44:58;12.30;99.90
46758;DHT22;32509;47.750;-3.396;2023-04-01T09:59:08;12.30;99.90
46758;DHT22;32509;47.750;-3.396;2023-04-01T10:05:18;12.50;99.90
46758;DHT22;32509;47.750;-3.396;2023-04-01T10:16:50;12.50;99.90
46758;DHT22;32509;47.750;-3.396;2023-04-01T10:39:08;12.60;99.90
46758;DHT22;32509;47.750;-3.396;2023-04-01T10:47:25;12.60;99.90
46758;DHT22;32509;47.750;-3.396;2023-04-01T10:50:14;12.60;99.90
46758;DHT22;32509;47.750;-3.396;2023-04-01T10:55:53;12.60;99.90
46758;DHT22;32509;47.750;-3.396;2023-04-01T11:15:37;12.90;99.90
46758;DHT22;32509;47.750;-3.396;2023-04-01T11:57:03;13.00;99.90
46758;DHT22;32509;47.750;-3.396;2023-04-01T12:02:29;13.00;99.90
46758;DHT22;32509;47.750;-3.396;2023-04-01T12:10:50;13.10;99.90
46758;DHT22;32509;47.750;-3.396;2023-04-01T12:13:49;13.00;99.90
46758;DHT22;32509;47.750;-3.396;2023-04-01T12:25:06;13.00;99.90
46758;DHT22;32509;47.750;-3.396;2023-04-01T12:30:32;13.00;99.90
46758;DHT22;32509;47.750;-3.396;2023-04-01T12:44:02;13.00;99.90
46758;DHT22;32509;47.750;-3.396;2023-04-01T13:05:42;13.10;99.90
46758;DHT22;32509;47.750;-3.396;2023-04-01T13:11:46;13.00;99.90
46758;DHT22;32509;47.750;-3.396;2023-04-01T13:14:42;13.10;99.90
46758;DHT22;32509;47.750;-3.396;2023-04-01T13:29:36;13.00;99.90
46758;DHT22;32509;47.750;-3.396;2023-04-01T13:35:04;13.00;99.90
46758;DHT22;32509;47.750;-3.396;2023-04-01T13:59:19;13.10;99.90
46758;DHT22;32509;47.750;-3.396;2023-04-01T14:04:49;13.10;99.90
46758;DHT22;32509;47.750;-3.396;2023-04-01T14:13:05;13.10;99.90
46758;DHT22;32509;47.750;-3.396;2023-04-01T14:24:36;13.00;99.90
46758;DHT22;32509;47.750;-3.396;2023-04-01T14:32:34;13.00;99.90
46758;DHT22;32509;47.750;-3.396;2023-04-01T14:50:50;13.20;99.90
46758;DHT22;32509;47.750;-3.396;2023-04-01T14:53:26;13.20;99.90
46758;DHT22;32509;47.750;-3.396;2023-04-01T14:55:56;13.20;99.90
46758;DHT22;32509;47.750;-3.396;2023-04-01T14:58:24;13.20;99.90
46758;DHT22;32509;47.750;-3.396;2023-04-01T15:01:23;13.30;99.90
46758;DHT22;32509;47.750;-3.396;2023-04-01T15:04:15;13.30;99.90
46758;DHT22;32509;47.750;-3.396;2023-04-01T15:20:43;13.10;99.90
46758;DHT22;32509;47.750;-3.396;2023-04-01T15:23:30;13.10;99.90
46758;DHT22;32509;47.750;-3.396;2023-04-01T15:31:31;13.10;99.90
46758;DHT22;32509;47.750;-3.396;2023-04-01T15:36:57;13.10;99.90
46758;DHT22;32509;47.750;-3.396;2023-04-01T15:47:44;13.00;99.90
46758;DHT22;32509;47.750;-3.396;2023-04-01T16:05:03;13.00;99.90
46758;DHT22;32509;47.750;-3.396;2023-04-01T16:08:07;12.90;99.90
46758;DHT22;32509;47.750;-3.396;2023-04-01T16:29:53;12.90;99.90
46758;DHT22;32509;47.750;-3.396;2023-04-01T16:38:11;13.00;99.90
46758;DHT22;32509;47.750;-3.396;2023-04-01T16:51:16;12.90;99.90
46758;DHT22;32509;47.750;-3.396;2023-04-01T16:53:45;12.80;99.90
46758;DHT22;32509;47.750;-3.396;2023-04-01T16:56:22;12.80;99.90
46758;DHT22;32509;47.750;-3.396;2023-04-01T16:59:14;12.70;99.90
46758;DHT22;32509;47.750;-3.396;2023-04-01T17:01:53;12.70;99.90
46758;DHT22;32509;47.750;-3.396;2023-04-01T17:04:30;12.70;99.90
46758;DHT22;32509;47.750;-3.396;2023-04-01T17:07:21;12.60;99.90
46758;DHT22;32509;47.750;-3.396;2023-04-01T17:12:42;12.70;99.90
46758;DHT22;32509;47.750;-3.396;2023-04-01T17:15:51;12.70;99.90
46758;DHT22;32509;47.750;-3.396;2023-04-01T17:18:23;12.70;99.90
46758;DHT22;32509;47.750;-3.396;2023-04-01T17:21:04;12.70;99.90
46758;DHT22;32509;47.750;-3.396;2023-04-01T17:23:53;12.60;99.90
46758;DHT22;32509;47.750;-3.396;2023-04-01T17:26:42;12.60;99.90
46758;DHT22;32509;47.750;-3.396;2023-04-01T17:29:30;12.60;99.90
46758;DHT22;32509;47.750;-3.396;2023-04-01T17:35:08;12.70;99.90
46758;DHT22;32509;47.750;-3.396;2023-04-01T17:37:48;12.70;99.90
46758;DHT22;32509;47.750;-3.396;2023-04-01T17:45:55;12.70;99.90
46758;DHT22;32509;47.750;-3.396;2023-04-01T17:48:49;12.60;99.90
46758;DHT22;32509;47.750;-3.396;2023-04-01T18:03:05;12.60;99.90
46758;DHT22;32509;47.750;-3.396;2023-04-01T18:14:19;12.50;99.90
46758;DHT22;32509;47.750;-3.396;2023-04-01T18:22:59;12.50;99.90
46758;DHT22;32509;47.750;-3.396;2023-04-01T18:25:43;12.50;99.90
46758;DHT22;32509;47.750;-3.396;2023-04-01T18:28:45;12.50;99.90
46758;DHT22;32509;47.750;-3.396;2023-04-01T18:31:18;12.50;99.90
46758;DHT22;32509;47.750;-3.396;2023-04-01T18:33:50;12.50;99.90
46758;DHT22;32509;47.750;-3.396;2023-04-01T18:42:15;12.50;99.90
46758;DHT22;32509;47.750;-3.396;2023-04-01T18:44:54;12.50;99.90
46758;DHT22;32509;47.750;-3.396;2023-04-01T18:47:29;12.60;99.90
46758;DHT22;32509;47.750;-3.396;2023-04-01T18:52:42;12.60;99.90
46758;DHT22;32509;47.750;-3.396;2023-04-01T18:58:32;12.60;99.90
46758;DHT22;32509;47.750;-3.396;2023-04-01T19:01:16;12.60;99.90
46758;DHT22;32509;47.750;-3.396;2023-04-01T19:06:28;12.60;99.90
46758;DHT22;32509;47.750;-3.396;2023-04-01T19:09:31;12.50;99.90
46758;DHT22;32509;47.750;-3.396;2023-04-01T19:17:44;12.40;99.90
46758;DHT22;32509;47.750;-3.396;2023-04-01T19:25:29;12.40;99.90
46758;DHT22;32509;47.750;-3.396;2023-04-01T19:30:51;12.40;99.90
46758;DHT22;32509;47.750;-3.396;2023-04-01T19:41:41;12.40;99.90
46758;DHT22;32509;47.750;-3.396;2023-04-01T19:44:36;12.30;99.90
46758;DHT22;32509;47.750;-3.396;2023-04-01T19:47:38;12.30;99.90
46758;DHT22;32509;47.750;-3.396;2023-04-01T19:50:26;12.30;99.90
46758;DHT22;32509;47.750;-3.396;2023-04-01T20:04:29;12.30;99.90
46758;DHT22;32509;47.750;-3.396;2023-04-01T20:15:36;12.20;99.90
46758;DHT22;32509;47.750;-3.396;2023-04-01T20:21:19;12.20;99.90
46758;DHT22;32509;47.750;-3.396;2023-04-01T20:23:56;12.20;99.90
46758;DHT22;32509;47.750;-3.396;2023-04-01T20:26:30;12.20;99.90
46758;DHT22;32509;47.750;-3.396;2023-04-01T20:34:50;12.20;99.90
46758;DHT22;32509;47.750;-3.396;2023-04-01T20:40:26;12.30;99.90
46758;DHT22;32509;47.750;-3.396;2023-04-01T20:48:45;12.20;99.90
46758;DHT22;32509;47.750;-3.396;2023-04-01T20:51:32;12.20;99.90
46758;DHT22;32509;47.750;-3.396;2023-04-01T20:54:30;12.20;99.90
46758;DHT22;32509;47.750;-3.396;2023-04-01T21:21:46;12.10;99.90
46758;DHT22;32509;47.750;-3.396;2023-04-01T21:35:59;12.10;99.90
46758;DHT22;32509;47.750;-3.396;2023-04-01T21:44:08;12.00;99.90
46758;DHT22;32509;47.750;-3.396;2023-04-01T21:52:20;12.00;99.90
46758;DHT22;32509;47.750;-3.396;2023-04-01T22:05:46;12.00;99.90
46758;DHT22;32509;47.750;-3.396;2023-04-01T22:11:08;12.00;99.90
46758;DHT22;32509;47.750;-3.396;2023-04-01T22:16:58;12.00;99.90
46758;DHT22;32509;47.750;-3.396;2023-04-01T22:19:59;12.10;99.90
46758;DHT22;32509;47.750;-3.396;2023-04-01T22:25:29;12.10;99.90
46758;DHT22;32509;47.750;-3.396;2023-04-01T22:28:21;12.00;99.90
46758;DHT22;32509;47.750;-3.396;2023-04-01T22:31:00;12.10;99.90
46758;DHT22;32509;47.750;-3.396;2023-04-01T22:43:47;12.10;99.90
46758;DHT22;32509;47.750;-3.396;2023-04-01T22:46:31;12.00;99.90
46758;DHT22;32509;47.750;-3.396;2023-04-01T22:54:20;11.90;99.90
46758;DHT22;32509;47.750;-3.396;2023-04-01T22:57:35;11.90;99.90
46758;DHT22;32509;47.750;-3.396;2023-04-01T23:00:10;11.90;99.90
46758;DHT22;32509;47.750;-3.396;2023-04-01T23:02:59;11.90;99.90
46758;DHT22;32509;47.750;-3.396;2023-04-01T23:05:25;11.90;99.90
46758;DHT22;32509;47.750;-3.396;2023-04-01T23:11:06;11.90;99.90
46758;DHT22;32509;47.750;-3.396;2023-04-01T23:13:38;12.00;99.90
46758;DHT22;32509;47.750;-3.396;2023-04-01T23:16:06;12.00;99.90
46758;DHT22;32509;47.750;-3.396;2023-04-01T23:21:26;12.00;99.90
46758;DHT22;32509;47.750;-3.396;2023-04-01T23:24:03;11.90;99.90
46758;DHT22;32509;47.750;-3.396;2023-04-01T23:26:59;11.90;99.90
46758;DHT22;32509;47.750;-3.396;2023-04-01T23:29:27;11.90;99.90
46758;DHT22;32509;47.750;-3.396;2023-04-01T23:32:17;11.90;99.90
46758;DHT22;32509;47.750;-3.396;2023-04-01T23:34:54;11.90;99.90
46758;DHT22;32509;47.750;-3.396;2023-04-01T23:37:22;11.90;99.90
46758;DHT22;32509;47.750;-3.396;2023-04-01T23:39:53;11.90;99.90
46758;DHT22;32509;47.750;-3.396;2023-04-01T23:42:29;11.90;99.90
46758;DHT22;32509;47.750;-3.396;2023-04-01T23:44:58;11.90;99.90
46758;DHT22;32509;47.750;-3.396;2023-04-01T23:47:38;11.90;99.90
46758;DHT22;32509;47.750;-3.396;2023-04-01T23:50:17;11.90;99.90
46758;DHT22;32509;47.750;-3.396;2023-04-01T23:52:48;11.90;99.90
46758;DHT22;32509;47.750;-3.396;2023-04-01T23:55:19;12.00;99.90
